Time;durP1;ratioP1;P1;durP2;ratioP2;P2;SDS_P1;SDS_P2;PMS_P1;PMS_P2;Temp;Humidity;BMP_temperature;BMP_pressure;BME280_temperature;BME280_humidity;BME280_pressure;Samples;Min_cycle;Max_cycle;Signal;HPM_P1;HPM_P2
2022/06/19 00:02:26;;;;;;;5.22;2.85;;;;;;;21.36;59.42;98970.97;1723558;83;21417;-62
2022/06/19 00:04:55;;;;;;;8.03;3.17;;;;;;;21.35;59.59;98967.44;1755165;81;21012;-63
2022/06/19 00:07:21;;;;;;;6.15;2.70;;;;;;;21.31;60.10;98970.61;1723563;83;21011;-64
2022/06/19 00:09:48;;;;;;;10.30;2.75;;;;;;;21.30;59.95;98971.09;1727905;82;21025;-64
2022/06/19 00:12:16;;;;;;;10.32;3.15;;;;;;;21.29;59.57;98966.76;1723754;83;21540;-66
2022/06/19 00:14:42;;;;;;;9.30;2.92;;;;;;;21.25;60.02;98968.09;1755036;80;21511;-64
2022/06/19 00:17:09;;;;;;;2.75;2.30;;;;;;;21.25;59.99;98963.56;1723813;83;20979;-63
2022/06/19 00:19:36;;;;;;;2.67;2.47;;;;;;;21.25;60.05;98962.73;1755279;81;21010;-63
2022/06/19 00:22:03;;;;;;;3.67;2.55;;;;;;;21.22;60.18;98963.05;1734503;83;20954;-64
2022/06/19 00:24:29;;;;;;;3.30;2.50;;;;;;;21.20;60.39;98962.38;1734511;83;20951;-65
2022/06/19 00:26:56;;;;;;;6.20;2.50;;;;;;;21.19;60.40;98968.71;1723871;83;20994;-61
2022/06/19 00:29:22;;;;;;;5.45;2.22;;;;;;;21.16;60.49;98969.88;1755351;82;20982;-64
2022/06/19 00:31:48;;;;;;;3.30;2.50;;;;;;;21.13;60.60;98964.02;1723689;83;21500;-64
2022/06/19 00:34:14;;;;;;;6.25;2.52;;;;;;;21.11;60.40;98970.03;1727918;82;21018;-65
2022/06/19 00:36:40;;;;;;;3.65;2.52;;;;;;;21.06;60.64;98962.48;1755120;81;20958;-62
2022/06/19 00:39:06;;;;;;;4.62;2.45;;;;;;;21.05;60.37;98962.98;1755390;82;21013;-63
2022/06/19 00:41:39;;;;;;;5.85;2.47;;;;;;;21.02;60.74;98961.12;1755121;81;20986;-61
2022/06/19 00:44:09;;;;;;;4.42;2.40;;;;;;;21.00;60.66;98963.95;1732746;81;21030;-62
2022/06/19 00:46:46;;;;;;;3.58;2.47;;;;;;;20.97;60.69;98965.59;1703595;84;20975;-59
2022/06/19 00:49:15;;;;;;;;;;;;;;;20.97;60.70;98968.78;1720424;83;21485;-67
2022/06/19 00:51:42;;;;;;;4.83;2.20;;;;;;;20.91;61.31;98966.25;1720788;83;20410;-63
2022/06/19 00:54:13;;;;;;;6.87;2.83;;;;;;;20.89;60.92;98965.58;1722047;83;21469;-63
2022/06/19 00:56:39;;;;;;;4.15;2.72;;;;;;;20.85;61.28;98964.22;1697507;83;21516;-65
2022/06/19 00:59:06;;;;;;;6.30;3.55;;;;;;;20.84;60.83;98958.53;1722063;83;21532;-65
2022/06/19 01:01:32;;;;;;;4.92;2.60;;;;;;;20.83;60.68;98965.72;1721978;83;20991;-60
2022/06/19 01:04:06;;;;;;;5.72;2.65;;;;;;;20.81;61.18;98964.17;1721812;83;21508;-65
2022/06/19 01:06:33;;;;;;;7.03;2.22;;;;;;;20.79;61.19;98964.84;1721920;83;20999;-64
2022/06/19 01:08:59;;;;;;;3.85;2.40;;;;;;;20.79;61.00;98969.70;1721849;83;21011;-65
2022/06/19 01:11:30;;;;;;;7.10;2.30;;;;;;;20.81;60.56;98973.53;1722106;83;21357;-61
2022/06/19 01:13:57;;;;;;;2.87;2.50;;;;;;;20.77;61.03;98970.84;1721942;83;20975;-63
2022/06/19 01:16:23;;;;;;;5.25;2.17;;;;;;;20.76;61.47;98975.86;1722026;83;21022;-60
2022/06/19 01:18:49;;;;;;;6.42;2.67;;;;;;;20.75;60.83;98971.50;1721861;83;20990;-63
2022/06/19 01:21:44;;;;;;;7.12;2.45;;;;;;;20.69;61.26;98968.46;1721813;83;20999;-64
2022/06/19 01:24:25;;;;;;;4.90;2.50;;;;;;;20.71;60.82;98965.13;1721787;83;20999;-61
2022/06/19 01:26:55;;;;;;;3.87;2.45;;;;;;;20.67;61.30;98973.13;1721806;83;21078;-64
2022/06/19 01:29:21;;;;;;;7.00;2.30;;;;;;;20.66;60.89;98971.44;1721973;83;21445;-62
2022/06/19 01:31:54;;;;;;;4.58;2.87;;;;;;;20.68;60.89;98985.50;1721818;83;20975;-66
2022/06/19 01:34:36;;;;;;;3.30;2.70;;;;;;;20.67;61.03;98983.81;1721915;83;20999;-65
2022/06/19 01:37:25;;;;;;;3.90;2.12;;;;;;;20.67;60.93;98989.16;1721605;83;20998;-62
2022/06/19 01:40:14;;;;;;;3.15;2.25;;;;;;;20.65;61.23;98992.48;1721214;83;21034;-64
2022/06/19 01:42:40;;;;;;;4.62;2.40;;;;;;;20.62;61.39;98992.80;1721814;83;20983;-61
2022/06/19 01:45:07;;;;;;;10.13;2.30;;;;;;;20.61;61.31;98996.48;1721699;82;20999;-64
2022/06/19 01:47:33;;;;;;;5.12;2.50;;;;;;;20.60;61.42;99004.11;1721877;83;21132;-67
2022/06/19 01:50:00;;;;;;;5.37;2.80;;;;;;;20.57;61.56;98992.39;1697620;83;21002;-64
2022/06/19 01:52:29;;;;;;;3.40;2.62;;;;;;;20.55;61.68;98997.55;1721921;83;20990;-58
2022/06/19 01:55:06;;;;;;;5.95;2.70;;;;;;;20.51;61.88;98997.86;1721801;83;20979;-62
2022/06/19 01:57:36;;;;;;;5.92;2.22;;;;;;;20.46;62.11;98996.14;1721874;83;20967;-60
2022/06/19 02:00:05;;;;;;;5.25;2.50;;;;;;;20.43;62.42;98996.95;1721769;83;21546;-65
2022/06/19 02:02:33;;;;;;;4.37;2.62;;;;;;;20.38;62.69;98997.94;1721817;83;21033;-64
2022/06/19 02:05:00;;;;;;;3.30;2.35;;;;;;;20.30;63.54;98992.88;1697730;83;20996;-65
2022/06/19 02:07:28;;;;;;;9.57;2.40;;;;;;;20.27;63.99;98995.84;1722054;83;21002;-65
2022/06/19 02:09:55;;;;;;;4.95;2.77;;;;;;;20.25;63.67;98988.48;1721772;83;20991;-62
2022/06/19 02:12:27;;;;;;;8.20;3.37;;;;;;;20.23;63.89;98987.80;1722123;83;20995;-65
2022/06/19 02:14:53;;;;;;;11.12;2.45;;;;;;;20.24;63.85;98989.47;1721891;83;20959;-60
2022/06/19 02:17:27;;;;;;;5.87;2.52;;;;;;;20.21;63.98;98977.78;1721818;83;20999;-66
2022/06/19 02:19:53;;;;;;;3.98;2.95;;;;;;;20.21;64.34;98976.92;1697246;83;21039;-65
2022/06/19 02:22:19;;;;;;;9.95;2.80;;;;;;;20.17;64.06;98975.05;1722135;83;21282;-60
2022/06/19 02:24:46;;;;;;;4.20;2.80;;;;;;;20.18;63.99;98967.41;1721764;83;21358;-61
2022/06/19 02:27:13;;;;;;;4.33;2.60;;;;;;;20.18;64.28;98968.73;1721860;83;20955;-59
2022/06/19 02:29:41;;;;;;;2.40;2.20;;;;;;;20.18;64.26;98972.73;1721909;83;20979;-66
2022/06/19 02:32:21;;;;;;;4.72;2.72;;;;;;;20.19;64.35;98971.73;1721731;83;20991;-64
2022/06/19 02:34:50;;;;;;;4.30;2.83;;;;;;;20.21;64.24;98967.10;1719396;83;21003;-59
2022/06/19 02:37:29;;;;;;;7.30;2.75;;;;;;;20.22;64.23;98974.10;1721737;83;21070;-63
2022/06/19 02:43:32;;;;;;;4.78;2.90;;;;;;;20.24;64.30;98971.28;1801337;79;23185;-60
2022/06/19 02:46:00;;;;;;;5.42;3.20;;;;;;;20.16;64.04;98957.37;1761881;81;20983;-60
2022/06/19 02:48:31;;;;;;;4.08;2.60;;;;;;;20.13;64.12;98951.83;1762294;80;20994;-58
2022/06/19 02:51:00;;;;;;;7.20;2.90;;;;;;;20.08;64.10;98947.95;1761848;80;20971;-60
2022/06/19 02:53:27;;;;;;;3.30;2.70;;;;;;;20.10;64.07;98957.50;1762026;81;21038;-62
2022/06/19 02:55:54;;;;;;;6.08;2.83;;;;;;;20.09;64.22;98950.98;1761963;81;21003;-62
2022/06/19 02:58:21;;;;;;;3.05;2.80;;;;;;;20.09;64.29;98949.64;1761935;80;21042;-59
2022/06/19 03:00:49;;;;;;;4.70;2.83;;;;;;;20.07;64.45;98953.80;1762053;80;20986;-57
2022/06/19 03:03:36;;;;;;;4.97;2.62;;;;;;;20.03;64.53;98946.23;1761826;81;20987;-58
2022/06/19 03:06:03;;;;;;;3.33;2.62;;;;;;;20.03;64.45;98946.23;1761985;81;20986;-58
2022/06/19 03:08:29;;;;;;;5.22;2.80;;;;;;;20.02;64.26;98945.91;1761880;81;21464;-55
2022/06/19 03:10:56;;;;;;;5.83;3.35;;;;;;;20.01;64.01;98938.88;1761874;80;21006;-53
2022/06/19 03:13:22;;;;;;;8.10;2.80;;;;;;;19.98;63.94;98945.38;1762221;80;20972;-55
2022/06/19 03:16:07;;;;;;;3.50;2.70;;;;;;;19.97;63.98;98940.19;1761958;81;20979;-61
2022/06/19 03:18:34;;;;;;;7.05;2.50;;;;;;;19.94;63.89;98936.84;1761845;81;20955;-54
2022/06/19 03:20:59;;;;;;;;;;;;;;;19.93;63.80;98925.81;1764568;81;20990;-58
2022/06/19 03:23:26;;;;;;;6.10;2.80;;;;;;;19.90;64.22;98926.14;1761824;81;20385;-54
2022/06/19 03:25:52;;;;;;;6.83;2.80;;;;;;;19.90;63.87;98927.47;1762064;80;21007;-57
2022/06/19 03:28:18;;;;;;;3.83;3.20;;;;;;;19.92;63.83;98924.15;1762058;81;20995;-56
2022/06/19 03:30:44;;;;;;;5.05;2.50;;;;;;;19.94;63.61;98922.67;1761822;81;20989;-56
2022/06/19 03:33:10;;;;;;;3.25;2.47;;;;;;;19.93;64.04;98916.47;1761828;81;20968;-55
2022/06/19 03:35:36;;;;;;;5.67;2.50;;;;;;;19.94;63.74;98915.49;1761775;81;20991;-53
2022/06/19 03:38:02;;;;;;;8.08;2.90;;;;;;;19.98;63.95;98920.53;1761766;80;20988;-55
2022/06/19 03:40:27;;;;;;;5.28;2.90;;;;;;;19.99;64.06;98918.19;1762025;81;20987;-58
2022/06/19 03:42:53;;;;;;;4.08;2.65;;;;;;;20.02;64.17;98917.89;1761816;81;21008;-54
2022/06/19 03:45:19;;;;;;;4.35;2.52;;;;;;;20.04;63.95;98919.90;1762058;81;20991;-58
2022/06/19 03:47:45;;;;;;;8.33;2.85;;;;;;;20.09;63.85;98905.09;1762051;81;20994;-54
2022/06/19 03:50:15;;;;;;;8.68;2.62;;;;;;;20.11;63.63;98907.61;1762060;81;20967;-60
2022/06/19 03:52:41;;;;;;;5.60;2.45;;;;;;;20.14;63.60;98900.12;1762074;81;21038;-52
2022/06/19 03:55:08;;;;;;;5.95;2.40;;;;;;;20.17;63.57;98900.30;1761582;81;21497;-57
2022/06/19 03:57:34;;;;;;;3.02;2.30;;;;;;;20.17;63.41;98900.30;1761659;81;20990;-60
2022/06/19 04:00:00;;;;;;;5.20;2.37;;;;;;;20.19;63.11;98899.64;1761579;81;21449;-57
2022/06/19 04:02:26;;;;;;;7.00;2.27;;;;;;;20.23;63.15;98903.70;1761534;81;21030;-54
2022/06/19 04:04:52;;;;;;;5.62;2.45;;;;;;;20.25;62.98;98905.72;1761501;80;21019;-58
2022/06/19 04:07:17;;;;;;;5.80;2.27;;;;;;;20.27;62.78;98909.06;1761469;81;20995;-54
2022/06/19 04:09:44;;;;;;;3.67;2.58;;;;;;;20.28;62.77;98908.09;1761720;81;20991;-57
2022/06/19 04:12:11;;;;;;;4.58;2.40;;;;;;;20.31;62.45;98910.92;1761948;80;21033;-57
2022/06/19 04:14:37;;;;;;;3.70;2.72;;;;;;;20.31;62.43;98905.59;1761650;81;21492;-57
2022/06/19 04:17:05;;;;;;;8.25;2.47;;;;;;;20.32;62.52;98900.59;1761662;81;21484;-56
2022/06/19 04:19:31;;;;;;;6.65;2.70;;;;;;;20.36;62.42;98905.13;1761527;81;20991;-59
2022/06/19 04:21:57;;;;;;;10.18;2.60;;;;;;;20.36;62.42;98901.13;1761743;81;20995;-55
2022/06/19 04:24:23;;;;;;;4.60;2.47;;;;;;;20.30;62.34;98894.08;1761537;81;20984;-58
2022/06/19 04:26:49;;;;;;;7.22;2.22;;;;;;;20.32;62.05;98891.25;1761484;81;21508;-54
2022/06/19 04:29:17;;;;;;;8.23;2.40;;;;;;;20.30;62.12;98885.20;1761488;81;20990;-59
2022/06/19 04:31:43;;;;;;;2.83;2.27;;;;;;;20.32;62.08;98883.24;1761472;81;20967;-54
2022/06/19 04:34:09;;;;;;;6.15;2.33;;;;;;;20.33;62.14;98881.72;1761445;81;21128;-61
2022/06/19 04:36:36;;;;;;;3.90;2.55;;;;;;;20.35;62.09;98874.89;1761590;81;21015;-57
2022/06/19 04:39:04;;;;;;;8.15;2.40;;;;;;;20.36;62.14;98874.42;1761717;80;21519;-56
2022/06/19 04:41:37;;;;;;;4.25;2.40;;;;;;;20.38;62.04;98878.59;1761767;81;21127;-52
2022/06/19 04:44:07;;;;;;;3.70;2.65;;;;;;;20.39;62.10;98870.08;1724089;82;20998;-57
2022/06/19 04:46:33;;;;;;;4.50;2.30;;;;;;;20.43;61.93;98879.44;1753553;81;20991;-58
2022/06/19 04:48:59;;;;;;;4.72;2.62;;;;;;;20.47;61.82;98874.14;1752451;81;21601;-57
2022/06/19 04:51:25;;;;;;;6.00;2.12;;;;;;;20.48;62.15;98886.02;1752203;82;21064;-57
2022/06/19 04:53:53;;;;;;;2.98;2.47;;;;;;;20.53;61.82;98875.66;1753379;82;21034;-59
2022/06/19 04:56:19;;;;;;;;;;;;;;;20.57;61.66;98876.19;1755995;82;21498;-55
2022/06/19 04:58:46;;;;;;;3.02;2.30;;;;;;;20.58;62.20;98871.19;1753597;82;20104;-55
2022/06/19 05:01:23;;;;;;;3.40;2.27;;;;;;;20.61;61.57;98871.39;1753571;81;21452;-55
2022/06/19 05:03:52;;;;;;;3.90;2.42;;;;;;;20.65;61.19;98872.27;1753434;80;21479;-51
2022/06/19 05:06:19;;;;;;;4.85;2.27;;;;;;;20.71;60.80;98870.28;1753370;82;20951;-56
2022/06/19 05:08:45;;;;;;;2.77;2.00;;;;;;;20.70;61.05;98872.63;1753648;81;21464;-55
2022/06/19 05:11:12;;;;;;;6.33;2.55;;;;;;;20.78;60.87;98872.33;1753349;81;20987;-58
2022/06/19 05:13:38;;;;;;;5.37;2.22;;;;;;;20.81;60.79;98874.18;1753554;81;20963;-55
2022/06/19 05:16:08;;;;;;;4.22;2.12;;;;;;;20.86;60.45;98870.50;1753451;82;21050;-58
2022/06/19 05:18:35;;;;;;;8.33;2.10;;;;;;;20.89;60.70;98872.03;1753327;82;20958;-54
2022/06/19 05:21:04;;;;;;;8.58;2.27;;;;;;;20.97;60.36;98871.22;1753518;80;20990;-50
2022/06/19 05:23:32;;;;;;;2.25;1.95;;;;;;;21.01;60.17;98876.57;1753382;81;20986;-49
2022/06/19 05:26:03;;;;;;;3.02;2.02;;;;;;;21.05;60.09;98872.09;1753362;81;21022;-52
2022/06/19 05:28:30;;;;;;;5.67;2.00;;;;;;;21.12;60.17;98872.77;1753761;80;20986;-56
2022/06/19 05:30:58;;;;;;;7.78;2.35;;;;;;;21.18;59.92;98868.13;1753513;80;21616;-53
2022/06/19 05:33:25;;;;;;;6.25;2.10;;;;;;;21.20;59.85;98864.78;1752632;82;20990;-54
2022/06/19 05:35:51;;;;;;;14.73;2.47;;;;;;;21.25;59.74;98858.45;1753457;81;20959;-60
2022/06/19 05:38:17;;;;;;;4.70;2.10;;;;;;;21.30;59.74;98853.42;1753338;82;20987;-54
2022/06/19 05:40:43;;;;;;;9.15;2.70;;;;;;;21.37;59.71;98846.92;1753300;80;20967;-52
2022/06/19 05:43:09;;;;;;;2.92;2.17;;;;;;;21.38;59.50;98841.92;1750282;81;21007;-59
2022/06/19 05:45:35;;;;;;;2.62;2.25;;;;;;;21.47;59.35;98849.81;1748299;81;20972;-58
2022/06/19 05:48:01;;;;;;;6.90;2.17;;;;;;;21.53;59.04;98847.48;1748077;81;20964;-57
2022/06/19 05:50:27;;;;;;;3.98;2.20;;;;;;;21.61;59.11;98846.13;1748079;81;21595;-56
2022/06/19 05:52:53;;;;;;;5.45;2.12;;;;;;;21.62;59.02;98854.50;1748102;81;21470;-53
